Time;durP1;ratioP1;P1;durP2;ratioP2;P2;SDS_P1;SDS_P2;PMS_P1;PMS_P2;Temp;Humidity;BMP_temperature;BMP_pressure;BME280_temperature;BME280_humidity;BME280_pressure;Samples;Min_cycle;Max_cycle;Signal;HPM_P1;HPM_P2
2021/05/01 00:00:27;;;;;;;29.52;20.60;;;5.30;99.90;;;;;;6220197;28;20036;-83
2021/05/01 00:03:28;;;;;;;29.48;19.85;;;5.10;99.90;;;;;;6222784;28;20030;-81
2021/05/01 00:06:28;;;;;;;28.60;19.55;;;5.10;99.90;;;;;;6208240;28;20087;-81
2021/05/01 00:09:29;;;;;;;30.45;20.63;;;5.50;99.90;;;;;;6208235;28;20030;-82
2021/05/01 00:12:30;;;;;;;29.75;19.67;;;5.10;99.90;;;;;;6241358;28;20041;-82
2021/05/01 00:15:31;;;;;;;26.85;19.60;;;;;;;;;;6224306;28;20033;-84
2021/05/01 00:18:31;;;;;;;27.63;18.67;;;5.30;99.90;;;;;;6241281;28;20100;-82
2021/05/01 00:21:32;;;;;;;28.70;19.48;;;5.10;99.90;;;;;;6224716;28;20033;-81
2021/05/01 00:24:32;;;;;;;27.63;17.17;;;4.80;99.90;;;;;;6207990;28;20033;-81
2021/05/01 00:27:33;;;;;;;27.05;18.05;;;4.90;99.90;;;;;;6240882;28;20083;-81
2021/05/01 00:30:34;;;;;;;24.45;17.23;;;4.80;99.90;;;;;;6224154;28;20037;-84
2021/05/01 00:33:34;;;;;;;26.92;17.83;;;4.40;99.90;;;;;;6243354;28;20416;-81
2021/05/01 00:36:35;;;;;;;27.13;17.85;;;4.90;99.90;;;;;;6212167;28;20033;-83
2021/05/01 00:39:36;;;;;;;29.17;19.13;;;4.60;99.90;;;;;;6229098;28;20376;-80
2021/05/01 00:42:36;;;;;;;34.67;21.15;;;4.80;99.90;;;;;;6228406;28;20025;-83
2021/05/01 00:45:37;;;;;;;40.33;21.27;;;;;;;;;;6228279;28;20061;-80
2021/05/01 00:48:38;;;;;;;33.38;20.60;;;4.80;99.90;;;;;;6246088;28;20040;-81
2021/05/01 00:51:39;;;;;;;34.90;20.75;;;;;;;;;;6246035;28;20033;-81
2021/05/01 00:54:39;;;;;;;29.77;19.63;;;4.70;99.90;;;;;;6244892;28;20029;-84
2021/05/01 00:57:40;;;;;;;26.52;17.52;;;;;;;;;;6244323;28;20511;-81
2021/05/01 01:00:57;;;;;;;25.52;16.52;;;4.40;99.90;;;;;;6244620;28;20380;-81
2021/05/01 01:03:58;;;;;;;23.75;17.20;;;;;;;;;;6215859;28;20029;-80
2021/05/01 01:06:59;;;;;;;25.25;16.05;;;4.20;99.90;;;;;;6244683;28;20037;-80
2021/05/01 01:10:00;;;;;;;25.15;16.13;;;;;;;;;;6211600;28;20053;-80
2021/05/01 01:13:00;;;;;;;23.33;15.48;;;4.00;99.90;;;;;;6227932;28;20079;-80
2021/05/01 01:16:01;;;;;;;24.95;16.45;;;4.30;99.90;;;;;;6227898;28;20025;-80
2021/05/01 01:19:02;;;;;;;23.00;15.65;;;4.20;99.90;;;;;;6211649;28;20057;-81
2021/05/01 01:22:03;;;;;;;25.20;15.80;;;4.30;99.90;;;;;;6244328;28;20373;-80
2021/05/01 01:25:04;;;;;;;25.63;16.40;;;4.60;99.90;;;;;;6227848;28;20025;-81
2021/05/01 01:28:04;;;;;;;28.98;17.80;;;4.30;99.90;;;;;;6227391;28;20488;-80
2021/05/01 01:31:05;;;;;;;30.70;18.83;;;4.60;99.90;;;;;;6211335;28;20037;-81
2021/05/01 01:34:06;;;;;;;27.23;18.00;;;4.70;99.90;;;;;;6227695;28;20059;-81
2021/05/01 01:37:06;;;;;;;29.80;19.33;;;5.00;99.90;;;;;;6227188;28;20072;-81
2021/05/01 01:40:08;;;;;;;31.90;19.67;;;5.50;99.90;;;;;;6227494;28;20061;-80
2021/05/01 01:43:09;;;;;;;34.80;20.03;;;;;;;;;;6227408;28;20128;-83
2021/05/01 01:46:10;;;;;;;27.88;18.90;;;4.50;99.90;;;;;;6242432;28;20268;-81
2021/05/01 01:49:10;;;;;;;26.25;17.65;;;4.60;99.90;;;;;;6211036;28;20075;-81
2021/05/01 01:52:11;;;;;;;25.77;16.48;;;4.60;99.90;;;;;;6227526;28;20030;-82
2021/05/01 01:55:13;;;;;;;23.52;16.20;;;4.60;99.90;;;;;;6226864;28;20057;-82
2021/05/01 01:58:14;;;;;;;29.02;16.80;;;4.50;99.90;;;;;;6226561;28;20375;-81
2021/05/01 02:01:15;;;;;;;24.33;16.73;;;4.50;99.90;;;;;;6210432;28;20030;-83
2021/05/01 02:04:15;;;;;;;28.08;17.02;;;6.40;99.90;;;;;;6226885;28;20063;-81
2021/05/01 02:07:16;;;;;;;27.77;16.33;;;6.00;99.90;;;;;;6210330;28;20033;-83
2021/05/01 02:10:17;;;;;;;26.75;16.23;;;5.00;99.90;;;;;;6226733;28;20034;-83
2021/05/01 02:13:24;;;;;;;24.15;16.02;;;4.50;99.90;;;;;;6237405;28;20029;-81
2021/05/01 02:16:25;;;;;;;19.85;14.77;;;4.40;99.90;;;;;;6240090;28;20033;-85
2021/05/01 02:19:25;;;;;;;23.95;15.68;;;6.90;99.90;;;;;;6226689;28;20032;-83
2021/05/01 02:22:26;;;;;;;19.25;13.65;;;4.80;99.90;;;;;;6226330;28;20049;-82
2021/05/01 02:25:27;;;;;;;19.92;13.93;;;4.50;99.90;;;;;;6209903;28;20095;-86
2021/05/01 02:28:27;;;;;;;23.50;14.20;;;4.60;99.90;;;;;;6226172;28;20041;-83
2021/05/01 02:31:28;;;;;;;20.52;14.70;;;4.90;99.90;;;;;;6226148;28;20033;-85
2021/05/01 02:34:28;;;;;;;20.10;13.38;;;4.70;99.90;;;;;;6209663;28;20056;-85
2021/05/01 02:37:29;;;;;;;18.77;13.32;;;4.50;99.90;;;;;;6226087;28;20037;-82
2021/05/01 02:40:32;;;;;;;19.10;13.50;;;4.80;99.90;;;;;;6226484;28;20033;-81
2021/05/01 02:43:33;;;;;;;19.00;12.90;;;4.70;99.90;;;;;;6209882;28;20064;-81
2021/05/01 02:46:33;;;;;;;19.15;13.52;;;4.90;99.90;;;;;;6209444;28;20042;-82
2021/05/01 02:49:34;;;;;;;19.17;14.13;;;6.20;99.90;;;;;;6242268;28;20136;-83
2021/05/01 02:52:35;;;;;;;21.50;14.18;;;;;;;;;;6209500;28;20494;-85
2021/05/01 02:55:36;;;;;;;17.63;12.88;;;4.60;99.90;;;;;;6242035;28;20064;-84
2021/05/01 02:58:36;;;;;;;20.60;12.82;;;5.10;99.90;;;;;;6241782;28;20391;-84
2021/05/01 03:01:37;;;;;;;19.25;12.60;;;4.90;99.90;;;;;;6225902;28;20038;-82
2021/05/01 03:04:38;;;;;;;22.73;15.68;;;5.30;99.90;;;;;;6209542;28;20030;-85
2021/05/01 03:07:38;;;;;;;22.80;14.23;;;5.10;99.90;;;;;;6225545;28;20048;-82
2021/05/01 03:10:39;;;;;;;21.17;13.95;;;5.70;99.90;;;;;;6225551;28;20527;-82
2021/05/01 03:13:39;;;;;;;22.42;14.25;;;4.30;99.90;;;;;;6209140;28;20038;-83
2021/05/01 03:16:40;;;;;;;19.88;14.13;;;4.50;99.90;;;;;;6209210;28;20072;-86
2021/05/01 03:19:41;;;;;;;19.67;13.50;;;4.30;99.90;;;;;;6224971;28;20025;-85
2021/05/01 03:22:41;;;;;;;21.80;13.15;;;4.20;99.90;;;;;;6208843;28;20025;-83
2021/05/01 03:25:42;;;;;;;19.77;12.75;;;4.30;99.90;;;;;;6225094;28;20040;-82
2021/05/01 03:28:43;;;;;;;17.63;12.25;;;4.40;99.90;;;;;;6208759;28;20487;-84
2021/05/01 03:31:43;;;;;;;16.70;11.55;;;4.50;99.90;;;;;;6242768;28;20030;-83
2021/05/01 03:34:44;;;;;;;16.50;12.07;;;4.50;99.90;;;;;;6209242;28;20440;-82
2021/05/01 03:37:45;;;;;;;16.38;11.50;;;;;;;;;;6225171;28;20494;-82
2021/05/01 03:40:45;;;;;;;18.42;12.18;;;4.60;99.90;;;;;;6225307;28;20028;-82
2021/05/01 03:43:46;;;;;;;18.67;12.40;;;;;;;;;;6241575;28;20049;-82
2021/05/01 03:46:47;;;;;;;19.88;13.20;;;;;;;;;;6224971;28;20030;-82
2021/05/01 03:49:48;;;;;;;16.23;12.02;;;;;;;;;;6241467;28;20147;-85
2021/05/01 03:52:49;;;;;;;18.20;12.50;;;4.70;99.90;;;;;;6241506;28;20029;-82
2021/05/01 03:55:50;;;;;;;20.45;12.88;;;;;;;;;;6208781;28;20057;-84
2021/05/01 03:58:51;;;;;;;18.70;13.68;;;;;;;;;;6241554;28;20029;-84
2021/05/01 04:01:52;;;;;;;17.70;13.25;;;4.50;99.90;;;;;;6241599;28;20033;-82
2021/05/01 04:04:53;;;;;;;19.08;13.20;;;;;;;;;;6225071;28;20030;-81
2021/05/01 04:07:53;;;;;;;19.27;13.30;;;4.60;99.90;;;;;;6244187;28;20087;-84
2021/05/01 04:10:54;;;;;;;20.58;13.65;;;5.10;99.90;;;;;;6246057;28;20116;-81
2021/05/01 04:13:54;;;;;;;21.42;12.07;;;5.00;99.90;;;;;;6229711;28;20132;-83
2021/05/01 04:16:55;;;;;;;16.52;11.82;;;5.00;99.90;;;;;;6229852;28;20403;-85
2021/05/01 04:19:56;;;;;;;13.82;10.63;;;4.60;99.90;;;;;;6229528;28;20033;-82
2021/05/01 04:22:56;;;;;;;19.52;12.05;;;5.60;99.90;;;;;;6229503;28;20387;-83
2021/05/01 04:25:57;;;;;;;17.83;12.23;;;4.60;99.90;;;;;;6212867;28;20057;-82
2021/05/01 04:28:59;;;;;;;14.95;11.48;;;6.70;99.90;;;;;;6229130;28;20617;-82
2021/05/01 04:32:00;;;;;;;16.77;12.93;;;4.30;99.90;;;;;;6229256;28;20030;-82
2021/05/01 04:35:02;;;;;;;14.52;11.07;;;5.40;99.90;;;;;;6212981;28;20064;-82
2021/05/01 04:38:03;;;;;;;13.05;10.02;;;5.30;99.90;;;;;;6229017;28;20057;-82
2021/05/01 04:41:03;;;;;;;11.88;9.32;;;5.40;99.90;;;;;;6229375;28;20032;-83
2021/05/01 04:44:04;;;;;;;11.82;9.77;;;6.80;99.90;;;;;;6245400;28;20523;-82
2021/05/01 04:47:05;;;;;;;18.40;10.15;;;4.90;99.90;;;;;;6228780;28;20534;-82
2021/05/01 04:50:05;;;;;;;13.07;10.25;;;5.00;99.90;;;;;;6212655;28;20029;-84
2021/05/01 04:53:07;;;;;;;12.43;10.20;;;;;;;;;;6212436;28;20083;-82
2021/05/01 04:56:07;;;;;;;13.07;10.30;;;5.10;99.90;;;;;;6228905;28;20021;-82
2021/05/01 04:59:08;;;;;;;14.48;10.82;;;5.40;99.90;;;;;;6211927;28;20034;-83
2021/05/01 05:02:08;;;;;;;14.00;10.38;;;5.50;99.90;;;;;;6246824;28;20112;-85
2021/05/01 05:05:10;;;;;;;15.75;10.60;;;6.00;99.90;;;;;;6228445;28;20034;-82
2021/05/01 05:08:11;;;;;;;15.60;11.80;;;5.50;99.90;;;;;;6228412;28;20044;-83
2021/05/01 05:11:11;;;;;;;15.82;11.90;;;3.80;99.90;;;;;;6228591;28;20018;-82
2021/05/01 05:14:12;;;;;;;16.05;11.38;;;6.90;99.90;;;;;;6211574;28;20033;-82
2021/05/01 05:17:13;;;;;;;14.90;11.48;;;6.00;99.90;;;;;;6228185;28;20033;-82
2021/05/01 05:20:13;;;;;;;17.63;13.10;;;5.60;99.90;;;;;;6210462;28;20037;-82
2021/05/01 05:23:14;;;;;;;16.67;12.05;;;5.70;99.90;;;;;;6211805;28;20361;-84
2021/05/01 05:26:15;;;;;;;15.82;12.48;;;6.10;99.90;;;;;;6244039;28;20029;-84
2021/05/01 05:29:15;;;;;;;20.52;14.55;;;5.80;99.90;;;;;;6227969;28;20384;-82
2021/05/01 05:32:20;;;;;;;22.02;15.85;;;5.90;99.90;;;;;;6227681;28;20053;-83
2021/05/01 05:35:21;;;;;;;17.40;13.98;;;5.80;99.90;;;;;;6228190;28;20112;-85
2021/05/01 05:38:21;;;;;;;15.88;12.98;;;5.90;99.90;;;;;;6211273;28;20032;-83
2021/05/01 05:41:24;;;;;;;17.80;11.40;;;5.70;99.90;;;;;;6227774;28;20056;-84
2021/05/01 05:44:24;;;;;;;13.45;10.73;;;6.20;99.90;;;;;;6227614;28;20474;-82
2021/05/01 05:47:25;;;;;;;13.45;10.80;;;6.70;99.90;;;;;;6211184;28;20076;-82
2021/05/01 05:50:25;;;;;;;13.60;11.23;;;6.30;99.90;;;;;;6227373;28;20041;-84
2021/05/01 05:53:26;;;;;;;12.48;9.93;;;6.00;99.90;;;;;;6210829;28;20029;-83
2021/05/01 05:56:27;;;;;;;14.02;11.48;;;5.80;99.90;;;;;;6227464;28;20030;-85
2021/05/01 05:59:27;;;;;;;15.10;11.02;;;6.00;99.90;;;;;;6243420;28;20022;-84
2021/05/01 06:02:28;;;;;;;12.50;10.80;;;6.00;99.90;;;;;;6227111;28;20030;-83
2021/05/01 06:05:36;;;;;;;13.50;10.90;;;6.30;99.90;;;;;;6227234;28;20033;-83
2021/05/01 06:08:37;;;;;;;14.60;11.38;;;6.10;99.90;;;;;;6243585;28;20505;-83
2021/05/01 06:11:38;;;;;;;13.38;10.90;;;6.80;99.90;;;;;;6210813;28;20156;-82
2021/05/01 06:14:42;;;;;;;14.57;11.77;;;6.40;99.90;;;;;;6210550;28;20136;-82
2021/05/01 06:17:43;;;;;;;12.73;10.25;;;6.20;99.90;;;;;;6210314;28;20033;-84
2021/05/01 06:20:44;;;;;;;14.68;10.43;;;6.30;99.90;;;;;;6226462;28;20033;-84
2021/05/01 06:23:44;;;;;;;14.23;10.75;;;6.40;99.90;;;;;;6226817;28;20448;-82
2021/05/01 06:26:45;;;;;;;12.88;10.32;;;6.50;99.90;;;;;;6226324;28;20041;-85
2021/05/01 06:29:46;;;;;;;12.45;10.27;;;6.20;99.90;;;;;;6210295;28;20456;-82
2021/05/01 06:32:47;;;;;;;12.10;9.98;;;6.10;99.90;;;;;;6209574;28;20057;-82
2021/05/01 06:35:47;;;;;;;13.98;9.48;;;6.20;99.90;;;;;;6210117;28;20029;-83
2021/05/01 06:38:49;;;;;;;13.95;10.48;;;;;;;;;;6209908;28;20038;-84
2021/05/01 06:41:56;;;;;;;12.40;11.10;;;6.20;99.90;;;;;;6226207;28;20029;-82
2021/05/01 06:44:57;;;;;;;13.85;11.35;;;;;;;;;;6211166;28;20057;-80
2021/05/01 06:48:02;;;;;;;13.80;10.60;;;6.00;99.90;;;;;;6242899;28;20122;-83
2021/05/01 06:51:03;;;;;;;13.38;11.52;;;7.00;99.90;;;;;;6243270;28;20590;-85
2021/05/01 06:54:08;;;;;;;21.20;15.10;;;6.50;99.90;;;;;;6242796;28;20040;-83
2021/05/01 06:57:09;;;;;;;25.25;17.77;;;6.40;99.90;;;;;;6211251;28;20029;-81
2021/05/01 07:00:12;;;;;;;16.65;12.10;;;6.70;99.90;;;;;;6213917;28;20506;-81
2021/05/01 07:03:12;;;;;;;17.50;13.60;;;6.40;99.90;;;;;;6242784;28;20041;-81
2021/05/01 07:06:17;;;;;;;21.75;14.02;;;7.00;99.90;;;;;;6225892;28;20040;-85
2021/05/01 07:09:17;;;;;;;18.98;14.60;;;7.10;99.90;;;;;;6210397;28;20038;-85
2021/05/01 07:12:22;;;;;;;16.77;13.18;;;7.20;99.90;;;;;;6209861;28;20029;-80
2021/05/01 07:15:22;;;;;;;16.70;13.50;;;7.30;99.90;;;;;;6227536;28;20491;-82
2021/05/01 07:18:23;;;;;;;17.83;13.90;;;7.40;99.90;;;;;;6209852;28;20021;-81
2021/05/01 07:21:24;;;;;;;19.73;14.02;;;7.40;99.90;;;;;;6225505;28;20025;-80
2021/05/01 07:24:27;;;;;;;19.02;14.18;;;7.20;99.90;;;;;;6225849;28;20076;-80
2021/05/01 07:27:33;;;;;;;19.83;15.23;;;6.00;99.90;;;;;;6208537;28;20479;-81
2021/05/01 07:30:39;;;;;;;18.70;13.45;;;7.30;99.90;;;;;;6225834;28;20037;-81
2021/05/01 07:33:45;;;;;;;18.52;14.32;;;7.10;99.90;;;;;;6225565;28;20021;-81
2021/05/01 07:36:46;;;;;;;17.25;13.98;;;7.50;99.90;;;;;;6241642;28;20064;-82
2021/05/01 07:39:49;;;;;;;16.55;14.00;;;7.10;99.90;;;;;;6209045;28;20650;-82
2021/05/01 07:42:50;;;;;;;;;;;7.20;99.90;;;;;;6227609;28;20029;-83
2021/05/01 07:45:54;;;;;;;18.60;13.05;;;7.10;99.90;;;;;;6246484;28;19955;-82
2021/05/01 07:48:54;;;;;;;17.52;13.48;;;7.20;99.90;;;;;;6230240;28;20041;-80
2021/05/01 07:51:55;;;;;;;20.48;13.93;;;7.00;99.90;;;;;;6230784;28;20456;-82
2021/05/01 07:54:57;;;;;;;16.60;13.60;;;7.30;99.90;;;;;;6230456;28;20025;-79
2021/05/01 07:57:58;;;;;;;18.40;14.50;;;7.20;99.90;;;;;;6230257;28;20108;-83
2021/05/01 08:00:58;;;;;;;17.73;14.52;;;7.70;99.90;;;;;;6246694;28;20076;-79
2021/05/01 08:03:59;;;;;;;17.02;13.82;;;7.70;99.90;;;;;;6246420;28;20053;-81
2021/05/01 08:07:00;;;;;;;15.48;13.52;;;6.40;99.90;;;;;;6244611;28;20049;-80
2021/05/01 08:10:00;;;;;;;14.88;12.50;;;7.60;99.90;;;;;;6229395;28;20033;-80
2021/05/01 08:13:01;;;;;;;20.00;14.52;;;8.50;99.90;;;;;;6245012;28;20067;-80
2021/05/01 08:16:01;;;;;;;18.13;13.88;;;7.70;99.90;;;;;;6229375;28;20029;-81
2021/05/01 08:19:02;;;;;;;16.58;13.30;;;8.00;99.90;;;;;;6229654;28;20267;-81
2021/05/01 08:22:03;;;;;;;14.50;12.18;;;8.20;99.90;;;;;;6229810;28;20029;-80
2021/05/01 08:25:07;;;;;;;16.40;12.50;;;8.50;99.90;;;;;;6247092;28;20555;-79
2021/05/01 08:28:08;;;;;;;12.57;11.25;;;8.40;99.90;;;;;;6229347;28;20132;-81
2021/05/01 08:31:09;;;;;;;15.57;12.07;;;8.60;99.90;;;;;;6229855;28;20033;-80
2021/05/01 08:34:09;;;;;;;16.70;13.45;;;8.70;99.90;;;;;;6229640;28;20072;-81
2021/05/01 08:37:11;;;;;;;14.70;12.63;;;9.00;99.90;;;;;;6247114;28;20038;-81
2021/05/01 08:40:12;;;;;;;14.93;12.70;;;8.90;99.90;;;;;;6228924;28;20446;-82
2021/05/01 08:43:13;;;;;;;13.13;11.63;;;9.00;99.90;;;;;;6245417;28;20816;-79
2021/05/01 08:46:15;;;;;;;13.20;11.77;;;9.10;99.90;;;;;;6245301;28;20025;-81
2021/05/01 08:49:15;;;;;;;12.48;10.90;;;9.30;99.90;;;;;;6245470;28;20171;-82
2021/05/01 08:52:19;;;;;;;13.35;11.40;;;9.00;99.90;;;;;;6229140;28;20452;-80
2021/05/01 08:55:26;;;;;;;13.30;11.15;;;9.40;99.90;;;;;;6212213;28;20946;-79
2021/05/01 08:58:27;;;;;;;11.65;10.45;;;9.60;99.90;;;;;;6228853;28;20460;-78
2021/05/01 09:01:28;;;;;;;12.05;10.77;;;9.20;99.90;;;;;;6245856;28;20102;-80
2021/05/01 09:04:44;;;;;;;10.48;9.48;;;9.30;99.90;;;;;;6245284;28;20480;-81
2021/05/01 09:07:46;;;;;;;9.45;8.43;;;9.40;99.90;;;;;;6213109;28;20045;-83
2021/05/01 09:10:50;;;;;;;10.00;7.70;;;9.60;99.90;;;;;;6228931;28;20033;-82
2021/05/01 09:13:51;;;;;;;9.73;8.73;;;9.80;99.90;;;;;;6245072;28;20087;-82
2021/05/01 09:17:02;;;;;;;10.68;9.55;;;9.70;99.90;;;;;;6228156;28;20530;-81
2021/05/01 09:20:10;;;;;;;9.88;8.80;;;10.20;99.90;;;;;;6228559;28;20112;-80
2021/05/01 09:23:12;;;;;;;10.70;8.82;;;9.90;99.80;;;;;;6212464;28;20361;-79
2021/05/01 09:26:13;;;;;;;9.98;8.98;;;9.60;99.90;;;;;;6227922;28;20469;-80
2021/05/01 09:29:26;;;;;;;10.40;9.20;;;9.70;99.90;;;;;;6211729;28;20052;-81
2021/05/01 09:32:28;;;;;;;13.13;9.35;;;10.20;99.90;;;;;;6229395;28;20621;-79
2021/05/01 09:35:28;;;;;;;11.17;9.97;;;10.00;99.90;;;;;;6245742;28;20438;-80
2021/05/01 09:39:09;;;;;;;11.30;10.02;;;10.60;99.90;;;;;;6228116;28;20025;-82
2021/05/01 09:42:13;;;;;;;10.40;9.10;;;10.60;99.70;;;;;;6217621;28;20539;-81
2021/05/01 09:45:21;;;;;;;9.95;8.95;;;10.60;99.90;;;;;;6207014;28;20412;-82
2021/05/01 09:48:22;;;;;;;10.25;9.25;;;10.40;99.90;;;;;;6217542;28;20042;-80
2021/05/01 09:51:23;;;;;;;12.02;10.73;;;;;;;;;;6224547;28;20391;-80
2021/05/01 09:54:43;;;;;;;9.00;8.00;;;10.60;99.90;;;;;;6217668;28;20488;-81
2021/05/01 09:57:43;;;;;;;10.70;9.60;;;10.30;99.90;;;;;;6216780;28;20038;-81
2021/05/01 10:00:44;;;;;;;11.25;10.02;;;10.40;99.90;;;;;;6217839;28;20038;-80
2021/05/01 10:03:46;;;;;;;10.30;9.20;;;;;;;;;;6208030;28;20501;-82
2021/05/01 10:06:49;;;;;;;10.82;9.13;;;10.20;99.90;;;;;;6217398;28;20472;-81
2021/05/01 10:09:55;;;;;;;11.38;10.20;;;10.10;99.90;;;;;;6224428;28;20063;-84
2021/05/01 10:12:56;;;;;;;11.65;10.45;;;;;;;;;;6233405;28;20099;-81
2021/05/01 10:15:57;;;;;;;13.98;12.43;;;;;;;;;;6243469;28;20049;-83
2021/05/01 10:19:12;;;;;;;11.55;10.10;;;10.40;99.90;;;;;;6226752;28;20391;-83
2021/05/01 10:22:29;;;;;;;11.38;10.18;;;10.10;99.90;;;;;;6210811;28;20033;-80
2021/05/01 10:25:32;;;;;;;17.02;14.88;;;10.40;99.90;;;;;;6241190;28;20480;-80
2021/05/01 10:28:33;;;;;;;17.33;10.90;;;;;;;;;;6238332;28;20365;-88
2021/05/01 10:31:53;;;;;;;17.67;12.50;;;10.40;99.90;;;;;;6223081;28;20037;-86
2021/05/01 10:34:56;;;;;;;12.85;10.98;;;10.90;99.90;;;;;;6224213;28;20502;-79
2021/05/01 10:37:57;;;;;;;12.73;11.25;;;10.60;99.90;;;;;;6206787;28;20032;-80
2021/05/01 10:41:00;;;;;;;12.88;11.35;;;8.70;99.90;;;;;;6209061;28;20029;-80
2021/05/01 10:44:01;;;;;;;14.68;12.93;;;10.70;99.90;;;;;;6225359;28;20111;-81
2021/05/01 10:47:09;;;;;;;13.70;11.65;;;10.30;99.90;;;;;;6205157;28;20149;-79
2021/05/01 10:50:20;;;;;;;12.10;10.90;;;10.00;99.90;;;;;;6239212;28;20466;-81
2021/05/01 10:53:21;;;;;;;14.30;12.80;;;10.20;99.90;;;;;;6240001;28;20641;-80
2021/05/01 10:56:28;;;;;;;12.73;10.95;;;9.90;99.90;;;;;;6225750;28;20037;-80
2021/05/01 10:59:30;;;;;;;13.55;12.15;;;10.40;99.90;;;;;;6241815;28;20475;-79
2021/05/01 11:02:39;;;;;;;13.38;11.98;;;9.90;99.90;;;;;;6241634;28;20033;-81
2021/05/01 11:05:46;;;;;;;12.57;11.25;;;9.70;99.90;;;;;;6243956;28;20472;-81
2021/05/01 11:08:53;;;;;;;11.27;10.15;;;9.70;99.90;;;;;;6226495;28;20045;-80
2021/05/01 11:11:57;;;;;;;13.52;11.70;;;9.70;99.90;;;;;;6226362;28;20025;-80
2021/05/01 11:15:08;;;;;;;11.68;10.48;;;9.80;99.90;;;;;;6226413;28;20025;-78
2021/05/01 11:18:09;;;;;;;14.98;11.98;;;9.70;99.90;;;;;;6239758;28;20124;-79
2021/05/01 11:21:11;;;;;;;11.68;10.50;;;9.40;99.90;;;;;;6225282;28;20044;-80
2021/05/01 11:24:12;;;;;;;10.77;9.68;;;9.90;99.90;;;;;;6225510;28;20554;-80
2021/05/01 11:27:12;;;;;;;11.45;10.25;;;9.70;99.90;;;;;;6225028;28;20044;-83
2021/05/01 11:30:18;;;;;;;9.60;8.60;;;9.70;99.90;;;;;;6225539;28;20670;-82
2021/05/01 11:33:23;;;;;;;11.57;8.20;;;10.00;99.90;;;;;;6225246;28;20432;-83
2021/05/01 11:36:24;;;;;;;9.32;8.32;;;10.50;99.90;;;;;;6210097;28;20087;-87
2021/05/01 11:39:25;;;;;;;8.63;7.72;;;;;;;;;;6208563;28;20029;-80
2021/05/01 11:42:25;;;;;;;10.30;9.20;;;10.40;99.90;;;;;;6224276;28;20030;-83
2021/05/01 11:45:32;;;;;;;9.02;8.02;;;10.90;99.90;;;;;;6223939;28;20060;-80
2021/05/01 11:48:45;;;;;;;9.82;8.82;;;10.20;99.90;;;;;;6242419;28;20037;-81
2021/05/01 11:51:57;;;;;;;8.82;7.93;;;10.40;99.90;;;;;;6241410;28;20033;-78
2021/05/01 11:55:13;;;;;;;9.77;8.52;;;10.30;99.90;;;;;;6242987;28;20116;-78
2021/05/01 11:58:33;;;;;;;9.07;7.95;;;9.90;99.90;;;;;;6242700;28;20056;-78
2021/05/01 12:01:35;;;;;;;8.70;7.57;;;10.00;99.90;;;;;;6241645;28;20017;-78
2021/05/01 12:05:01;;;;;;;8.88;7.97;;;10.00;99.90;;;;;;6225092;28;20033;-82
2021/05/01 12:08:11;;;;;;;9.90;8.30;;;9.80;99.90;;;;;;6237829;28;20095;-80
2021/05/01 12:11:11;;;;;;;9.82;8.52;;;9.90;99.90;;;;;;6241696;28;20061;-80
2021/05/01 12:14:12;;;;;;;9.38;8.05;;;10.10;99.90;;;;;;6224955;28;20036;-82
2021/05/01 12:17:13;;;;;;;9.40;7.95;;;9.70;99.90;;;;;;6208646;28;20500;-82
2021/05/01 12:20:15;;;;;;;9.63;7.80;;;10.10;99.90;;;;;;6208825;28;20065;-82
2021/05/01 12:23:36;;;;;;;9.63;8.65;;;9.90;99.90;;;;;;6208534;28;20029;-82
2021/05/01 12:26:38;;;;;;;8.93;7.78;;;9.80;99.90;;;;;;6241108;28;20033;-81
2021/05/01 12:29:41;;;;;;;8.82;7.75;;;10.10;99.90;;;;;;6210392;28;20033;-80
2021/05/01 12:32:42;;;;;;;9.98;7.63;;;10.00;99.90;;;;;;6244904;28;20388;-80
2021/05/01 12:35:44;;;;;;;9.48;8.45;;;10.30;99.90;;;;;;6245729;28;20053;-78
2021/05/01 12:38:47;;;;;;;9.07;8.18;;;10.00;99.90;;;;;;6214329;28;20387;-77
2021/05/01 12:41:50;;;;;;;10.13;8.52;;;9.70;99.90;;;;;;6229212;28;20026;-78
2021/05/01 12:44:51;;;;;;;8.75;7.68;;;9.90;99.90;;;;;;6229031;28;20061;-76
2021/05/01 12:47:52;;;;;;;36.35;22.92;;;;;;;;;;6244971;28;20450;-77
2021/05/01 12:51:12;;;;;;;10.75;8.23;;;9.70;99.90;;;;;;6245751;28;20112;-81
2021/05/01 12:54:22;;;;;;;9.05;7.93;;;9.90;99.90;;;;;;6212580;28;20052;-79
2021/05/01 12:57:30;;;;;;;10.70;9.00;;;9.50;99.90;;;;;;6246640;28;20116;-80
2021/05/01 13:00:31;;;;;;;10.95;7.70;;;;;;;;;;6212199;28;20041;-80
2021/05/01 13:03:31;;;;;;;8.75;7.85;;;;;;;;;;6245346;28;20111;-84
2021/05/01 13:06:32;;;;;;;7.95;7.15;;;9.60;99.90;;;;;;6246125;28;20760;-81
2021/05/01 13:09:48;;;;;;;8.93;7.45;;;9.80;99.90;;;;;;6228150;28;20160;-83
2021/05/01 13:13:01;;;;;;;7.68;6.88;;;10.40;99.90;;;;;;6215056;28;20033;-79
2021/05/01 13:16:04;;;;;;;7.97;7.18;;;9.90;99.90;;;;;;6245105;28;20025;-79
2021/05/01 13:19:07;;;;;;;9.43;7.22;;;9.90;99.90;;;;;;6244977;28;20087;-82
2021/05/01 13:22:09;;;;;;;9.77;8.80;;;;;;;;;;6212845;28;20035;-79
2021/05/01 13:25:13;;;;;;;8.43;7.57;;;10.10;99.90;;;;;;6244327;28;20029;-77
2021/05/01 13:28:14;;;;;;;9.00;7.80;;;10.00;99.90;;;;;;6244621;28;20060;-79
2021/05/01 13:31:15;;;;;;;9.93;7.88;;;9.90;99.90;;;;;;6210734;28;20030;-81
2021/05/01 13:34:16;;;;;;;8.40;7.60;;;9.90;99.90;;;;;;6212718;28;20029;-81
2021/05/01 13:37:17;;;;;;;9.00;7.10;;;10.40;99.90;;;;;;6227608;28;20036;-80
2021/05/01 13:40:42;;;;;;;7.28;6.57;;;10.10;99.90;;;;;;6242967;28;20037;-79
2021/05/01 13:43:53;;;;;;;7.13;6.43;;;10.10;99.90;;;;;;6230199;28;20060;-80
2021/05/01 13:46:54;;;;;;;7.22;6.53;;;10.50;99.90;;;;;;6228026;28;20037;-80
2021/05/01 13:50:11;;;;;;;8.07;6.97;;;10.30;99.90;;;;;;6244256;28;20124;-83
2021/05/01 13:53:18;;;;;;;9.38;7.97;;;10.20;99.90;;;;;;6226422;28;20041;-80
2021/05/01 13:56:25;;;;;;;9.75;7.97;;;10.30;99.90;;;;;;6227110;28;20025;-81
2021/05/01 13:59:28;;;;;;;7.70;6.93;;;10.30;99.90;;;;;;6225814;28;20036;-78
2021/05/01 14:02:41;;;;;;;7.50;6.50;;;10.20;99.90;;;;;;6243008;28;20430;-79
2021/05/01 14:05:43;;;;;;;9.07;7.18;;;10.40;99.90;;;;;;6242917;28;20053;-78
2021/05/01 14:08:44;;;;;;;7.78;6.80;;;10.30;99.90;;;;;;6224892;28;20456;-77
2021/05/01 14:11:45;;;;;;;7.32;6.53;;;10.20;99.90;;;;;;6241462;28;20038;-78
2021/05/01 14:14:45;;;;;;;7.97;7.18;;;10.40;99.90;;;;;;6226394;28;20770;-77
2021/05/01 14:17:46;;;;;;;7.07;6.38;;;10.20;99.90;;;;;;6226564;28;20035;-79
2021/05/01 14:20:50;;;;;;;7.97;6.65;;;10.30;99.90;;;;;;6210400;28;20029;-79
2021/05/01 14:23:51;;;;;;;9.02;7.35;;;10.20;99.90;;;;;;6226682;28;20030;-80
2021/05/01 14:26:58;;;;;;;9.55;8.35;;;10.70;99.90;;;;;;6208910;28;20037;-77
2021/05/01 14:29:59;;;;;;;8.73;7.90;;;10.30;99.90;;;;;;6242516;28;20033;-77
2021/05/01 14:32:59;;;;;;;9.50;8.50;;;10.50;99.90;;;;;;6226200;28;20087;-78
2021/05/01 14:36:21;;;;;;;10.40;9.18;;;10.20;99.90;;;;;;6244396;28;20037;-79
2021/05/01 14:39:22;;;;;;;15.23;8.13;;;10.10;99.90;;;;;;6242132;28;20490;-78
2021/05/01 14:42:22;;;;;;;9.48;7.75;;;10.30;99.90;;;;;;6224148;28;20029;-79
2021/05/01 14:45:27;;;;;;;9.88;8.88;;;10.30;99.90;;;;;;6240755;28;20133;-77
2021/05/01 14:48:27;;;;;;;10.90;9.80;;;10.20;99.90;;;;;;6213428;28;20392;-79
2021/05/01 14:51:28;;;;;;;11.05;9.80;;;10.30;99.90;;;;;;6242034;28;20100;-77
2021/05/01 14:54:37;;;;;;;12.65;10.98;;;10.40;99.90;;;;;;6224556;28;20064;-77
2021/05/01 14:57:39;;;;;;;13.02;10.93;;;10.30;99.90;;;;;;6242397;28;20037;-77
2021/05/01 15:00:41;;;;;;;11.43;9.90;;;10.40;99.90;;;;;;6242100;28;20676;-80
2021/05/01 15:03:42;;;;;;;11.52;10.35;;;10.40;99.90;;;;;;6242383;28;20095;-77
2021/05/01 15:06:42;;;;;;;12.63;10.85;;;10.20;99.90;;;;;;6225524;28;20029;-78
2021/05/01 15:09:44;;;;;;;12.02;10.40;;;10.20;99.90;;;;;;6225794;28;20032;-81
2021/05/01 15:13:04;;;;;;;12.77;11.48;;;10.40;99.90;;;;;;6239594;28;20052;-77
2021/05/01 15:16:05;;;;;;;13.45;10.85;;;;;;;;;;6235820;28;20033;-78
2021/05/01 15:19:14;;;;;;;13.73;11.07;;;10.30;99.90;;;;;;6242013;28;20025;-77
2021/05/01 15:22:15;;;;;;;13.82;11.80;;;;;;;;;;6242034;28;20440;-81
2021/05/01 15:25:16;;;;;;;14.98;12.90;;;10.30;99.90;;;;;;6242020;28;20025;-78
2021/05/01 15:28:18;;;;;;;13.90;12.27;;;10.40;99.90;;;;;;6209180;28;20156;-77
2021/05/01 15:31:25;;;;;;;12.18;10.82;;;10.10;99.90;;;;;;6243261;28;20041;-81
2021/05/01 15:34:26;;;;;;;11.05;9.88;;;;;;;;;;6208371;28;20479;-78
2021/05/01 15:37:27;;;;;;;13.20;10.88;;;;;;;;;;6243369;28;20065;-77
2021/05/01 15:40:28;;;;;;;12.40;11.07;;;;;;;;;;6242991;28;20025;-80
2021/05/01 15:43:29;;;;;;;13.70;11.32;;;10.10;99.90;;;;;;6241697;28;20041;-78
2021/05/01 15:46:30;;;;;;;10.55;8.95;;;;;;;;;;6198376;28;20041;-78
2021/05/01 15:49:32;;;;;;;10.95;9.43;;;9.90;99.90;;;;;;6241599;28;20072;-79
2021/05/01 15:52:33;;;;;;;10.97;9.87;;;9.80;99.90;;;;;;6241648;28;20057;-79
2021/05/01 15:55:33;;;;;;;11.88;10.55;;;9.90;99.90;;;;;;6240687;28;20286;-78